Time;durP1;ratioP1;P1;durP2;ratioP2;P2;SDS_P1;SDS_P2;PMS_P1;PMS_P2;Temp;Humidity;BMP_temperature;BMP_pressure;BME280_temperature;BME280_humidity;BME280_pressure;Samples;Min_cycle;Max_cycle;Signal;HPM_P1;HPM_P2
2024/01/15 00:00:48;;;;;;;55.00;24.65;;;;;;;-144.05;86.56;57084.59;5096220;28;20411;-82
2024/01/15 00:03:14;;;;;;;54.55;24.92;;;;;;;-144.05;86.50;57078.22;5099554;28;20035;-79
2024/01/15 00:05:40;;;;;;;55.33;28.38;;;;;;;-144.05;86.43;57086.72;5101107;28;20052;-80
2024/01/15 00:08:07;;;;;;;53.63;25.88;;;;;;;-144.05;85.77;57054.88;5108563;28;20043;-83
2024/01/15 00:10:34;;;;;;;53.17;26.23;;;;;;;-144.05;85.82;57069.72;5097387;28;20048;-82
2024/01/15 00:13:00;;;;;;;53.40;26.08;;;;;;;-144.05;85.28;57076.09;5105369;28;20050;-79
2024/01/15 00:15:28;;;;;;;59.45;26.77;;;;;;;-144.05;85.16;57056.97;5101594;28;20047;-81
2024/01/15 00:17:55;;;;;;;57.78;26.90;;;;;;;-144.05;86.74;57027.25;5092980;28;20039;-81
2024/01/15 00:20:21;;;;;;;60.00;28.10;;;;;;;-144.05;86.35;57065.47;5093152;28;20031;-80
2024/01/15 00:22:48;;;;;;;61.08;26.98;;;;;;;-144.05;86.22;57042.13;5099444;28;20047;-82
2024/01/15 00:25:14;;;;;;;64.85;26.83;;;;;;;-144.05;86.21;57067.59;5092970;28;20093;-78
2024/01/15 00:27:40;;;;;;;57.80;27.35;;;;;;;-144.05;85.51;57052.75;5094442;28;20546;-82
2024/01/15 00:30:07;;;;;;;58.78;28.45;;;;;;;-144.05;85.19;57067.59;5098117;28;20082;-80
2024/01/15 00:32:33;;;;;;;58.65;27.08;;;;;;;-144.05;85.20;57076.09;5100758;28;20060;-81
2024/01/15 00:34:59;;;;;;;58.40;27.50;;;;;;;-144.05;85.00;57052.75;5090954;28;20040;-82
2024/01/15 00:37:25;;;;;;;64.10;26.52;;;;;;;-144.05;85.87;57080.34;5093737;28;20427;-78
2024/01/15 00:39:52;;;;;;;62.30;27.40;;;;;;;-144.05;85.87;57095.22;5091234;28;20035;-79
2024/01/15 00:42:18;;;;;;;60.67;25.92;;;;;;;-144.05;85.29;57082.47;5106255;28;20024;-82
2024/01/15 00:44:44;;;;;;;59.00;25.92;;;;;;;-144.05;85.74;57076.09;5108654;28;20433;-81
2024/01/15 00:47:11;;;;;;;60.83;26.02;;;;;;;-144.05;85.39;57065.47;5092629;28;20032;-78
2024/01/15 00:49:37;;;;;;;57.97;26.55;;;;;;;-144.05;84.91;57050.63;5094256;28;20029;-78
2024/01/15 00:52:04;;;;;;;58.20;24.92;;;;;;;-144.05;84.52;57063.34;5115254;28;20027;-81
2024/01/15 00:54:30;;;;;;;57.33;25.23;;;;;;;-144.05;85.17;57061.22;5097946;28;20492;-82
2024/01/15 00:56:56;;;;;;;56.00;25.65;;;;;;;-144.05;84.78;57097.34;5097217;28;20056;-81
2024/01/15 00:59:22;;;;;;;56.05;25.05;;;;;;;-144.05;84.51;57048.50;5096794;28;20032;-81
2024/01/15 01:01:49;;;;;;;60.30;27.65;;;;;;;-144.05;84.32;57063.34;5096005;28;20031;-79
2024/01/15 01:04:15;;;;;;;56.35;25.50;;;;;;;-144.05;84.18;57101.59;5093809;28;20043;-80
2024/01/15 01:06:41;;;;;;;52.78;24.27;;;;;;;-144.05;84.15;57076.09;5095213;28;20496;-78
2024/01/15 01:09:08;;;;;;;49.90;23.15;;;;;;;-144.05;84.27;57065.47;5096298;28;20088;-80
2024/01/15 01:11:34;;;;;;;56.85;25.63;;;;;;;-144.05;84.99;57048.50;5096276;28;20032;-80
2024/01/15 01:14:01;;;;;;;50.40;23.83;;;;;;;-144.05;84.30;57061.22;5095849;28;20177;-78
2024/01/15 01:16:27;;;;;;;55.78;24.27;;;;;;;-144.05;84.09;57067.59;5096176;28;20024;-78
2024/01/15 01:18:53;;;;;;;52.70;25.55;;;;;;;-144.05;83.91;57061.22;5094318;28;20024;-80
2024/01/15 01:21:20;;;;;;;51.13;22.90;;;;;;;-144.05;84.10;57059.09;5096948;28;20032;-77
2024/01/15 01:23:46;;;;;;;51.42;24.40;;;1.30;99.90;;;-144.05;83.08;57078.22;5097976;28;20024;-78
2024/01/15 01:26:17;;;;;;;49.85;24.15;;;1.30;99.90;;;-144.05;82.81;57095.22;5120359;27;20024;-81
2024/01/15 01:28:43;;;;;;;50.05;22.23;;;;;;;-144.05;83.24;57033.63;5096356;28;20047;-82
2024/01/15 01:31:09;;;;;;;50.28;24.73;;;;;;;-144.05;83.41;57078.22;5094943;28;20047;-80
2024/01/15 01:33:35;;;;;;;50.35;23.55;;;;;;;-144.05;83.49;57054.88;5096010;28;20514;-80
2024/01/15 01:36:07;;;;;;;50.67;23.90;;;;;;;-144.05;83.44;57031.50;5099571;28;20098;-79
2024/01/15 01:38:33;;;;;;;51.13;23.27;;;;;;;-144.05;83.18;57044.25;5094744;28;20462;-79
2024/01/15 01:40:59;;;;;;;53.47;24.15;;;;;;;-144.05;83.90;57065.47;5095880;28;20113;-81
2024/01/15 01:43:26;;;;;;;50.00;23.52;;;;;;;-144.05;82.93;57067.59;5096044;28;20035;-81
2024/01/15 01:45:54;;;;;;;47.45;23.63;;;;;;;-144.05;82.52;57061.22;5105077;28;20567;-80
2024/01/15 01:48:21;;;;;;;51.83;23.73;;;;;;;-144.05;82.56;57073.97;5105054;28;20031;-80
2024/01/15 01:50:47;;;;;;;51.25;23.73;;;;;;;-144.05;83.17;57084.59;5104642;28;20059;-81
2024/01/15 01:53:14;;;;;;;44.38;23.08;;;;;;;-144.05;81.76;57065.47;5096404;28;20057;-79
2024/01/15 01:55:41;;;;;;;48.47;23.33;;;;;;;-144.05;81.80;57050.63;5098811;28;20039;-81
2024/01/15 01:58:08;;;;;;;45.97;23.08;;;;;;;-144.05;81.37;57071.84;5095571;28;20028;-80
2024/01/15 02:00:36;;;;;;;45.10;22.05;;;;;;;-144.05;81.81;57065.47;5093589;28;20439;-78
2024/01/15 02:03:03;;;;;;;43.45;21.98;;;1.00;99.90;;;-144.05;81.30;57082.47;5093570;28;20032;-81
2024/01/15 02:05:30;;;;;;;44.30;21.85;;;;;;;-144.05;81.17;57046.38;5095580;28;20063;-79
2024/01/15 02:07:57;;;;;;;46.88;21.63;;;;;;;-144.05;80.75;57071.84;5101560;28;20032;-82
2024/01/15 02:10:23;;;;;;;49.17;22.05;;;;;;;-144.05;81.39;57048.50;5095930;28;20028;-79
2024/01/15 02:12:49;;;;;;;47.00;22.98;;;;;;;-144.05;81.57;57073.97;5104707;28;20086;-77
2024/01/15 02:15:16;;;;;;;45.92;23.50;;;;;;;-144.05;81.46;57063.34;5096504;28;20417;-80
2024/01/15 02:18:04;;;;;;;46.15;22.85;;;1.20;99.90;;;-144.05;81.07;57061.22;5103851;28;20024;-78
2024/01/15 02:20:32;;;;;;;46.92;22.20;;;;;;;-144.05;81.85;57069.72;5094825;28;20028;-79
2024/01/15 02:23:10;;;;;;;45.67;21.88;;;1.30;99.90;;;-144.05;81.36;57069.72;5093250;28;20036;-80
2024/01/15 02:25:46;;;;;;;42.10;21.63;;;1.80;99.90;;;-144.05;81.81;57086.72;5094152;28;20027;-80
2024/01/15 02:28:16;;;;;;;48.17;21.23;;;;;;;-144.05;81.33;57065.47;5095228;28;20028;-81
2024/01/15 02:30:44;;;;;;;41.95;20.15;;;;;;;-144.05;80.97;57003.88;5095132;28;20024;-78
2024/01/15 02:33:11;;;;;;;46.30;22.05;;;;;;;-144.05;80.49;57078.22;5094564;28;20020;-79
2024/01/15 02:35:38;;;;;;;41.13;20.40;;;;;;;-144.05;81.16;57073.97;5098911;28;20069;-78
2024/01/15 02:38:05;;;;;;;41.35;20.42;;;;;;;-144.05;80.14;57054.88;5101594;28;20103;-79
2024/01/15 02:40:32;;;;;;;41.45;20.35;;;;;;;-144.05;80.17;57052.75;5114934;27;20032;-80
2024/01/15 02:42:59;;;;;;;38.22;19.27;;;;;;;-144.05;80.54;57090.97;5094542;28;20099;-79
2024/01/15 02:45:25;;;;;;;42.60;20.70;;;;;;;-144.05;80.53;57078.22;5104249;28;20465;-81
2024/01/15 02:47:52;;;;;;;36.60;18.00;;;;;;;-144.05;80.07;57080.34;5094301;28;20069;-80
2024/01/15 02:50:18;;;;;;;32.60;17.90;;;;;;;-144.05;80.39;57042.13;5102115;28;20024;-80
2024/01/15 02:52:44;;;;;;;39.88;18.67;;;;;;;-144.05;80.96;57086.72;5094939;28;20028;-79
2024/01/15 02:55:10;;;;;;;34.25;17.90;;;;;;;-144.05;80.30;57080.34;5103713;28;20032;-81
2024/01/15 02:57:37;;;;;;;35.95;17.02;;;;;;;-144.05;80.20;57061.22;5094959;28;20024;-80
2024/01/15 03:00:04;;;;;;;32.53;16.15;;;;;;;-144.05;80.25;57071.84;5093434;28;20081;-79
2024/01/15 03:02:31;;;;;;;38.80;17.88;;;;;;;-144.05;79.74;57063.34;5103597;28;20030;-81
2024/01/15 03:04:57;;;;;;;35.42;16.38;;;;;;;-144.05;79.79;57078.22;5101880;28;20032;-81
2024/01/15 03:07:24;;;;;;;37.28;16.98;;;;;;;-144.05;80.14;57078.22;5092723;28;20028;-80
2024/01/15 03:09:50;;;;;;;35.10;17.38;;;;;;;-144.05;79.97;57056.97;5102293;28;20032;-82
2024/01/15 03:12:16;;;;;;;37.05;16.40;;;;;;;-144.05;79.75;57059.09;5108311;28;20039;-81
2024/01/15 03:14:42;;;;;;;37.30;17.77;;;;;;;-144.05;79.35;57063.34;5097956;28;20119;-79
2024/01/15 03:17:09;;;;;;;37.20;18.88;;;;;;;-144.05;78.74;57078.22;5094321;28;20019;-81
2024/01/15 03:19:36;;;;;;;37.03;17.63;;;;;;;-144.05;78.24;57069.72;5094802;28;20141;-82
2024/01/15 03:22:03;;;;;;;33.15;16.88;;;;;;;-144.05;78.48;57090.97;5093887;28;20514;-78
2024/01/15 03:24:31;;;;;;;31.70;17.17;;;;;;;-144.05;78.74;57069.72;5094570;28;20028;-81
2024/01/15 03:26:58;;;;;;;37.00;17.52;;;;;;;-144.05;79.18;57042.13;5100786;28;20127;-81
2024/01/15 03:29:24;;;;;;;32.65;15.52;;;;;;;-144.05;79.32;57093.09;5093487;28;20031;-80
2024/01/15 03:31:50;;;;;;;30.30;15.25;;;;;;;-144.05;79.31;57084.59;5096072;28;20027;-80
2024/01/15 03:34:16;;;;;;;40.60;17.13;;;;;;;-144.05;79.32;57050.63;5107725;28;20047;-81
2024/01/15 03:36:42;;;;;;;40.03;16.08;;;;;;;-144.05;79.13;57082.47;5098014;28;20023;-79
2024/01/15 03:39:09;;;;;;;38.05;16.17;;;;;;;-144.05;79.35;57073.97;5100191;28;20023;-78
2024/01/15 03:41:35;;;;;;;31.75;14.55;;;;;;;-144.05;78.70;57065.47;5092599;28;20457;-81
2024/01/15 03:44:01;;;;;;;40.15;15.70;;;;;;;-144.05;78.43;57073.97;5093386;28;20051;-80
2024/01/15 03:46:28;;;;;;;30.58;15.85;;;;;;;-144.05;78.03;57059.09;5094775;28;20374;-80
2024/01/15 03:48:54;;;;;;;30.13;14.05;;;;;;;-144.05;78.56;57044.25;5107090;28;20447;-81
2024/01/15 03:51:20;;;;;;;34.70;14.98;;;;;;;-144.05;79.60;57050.63;5112689;28;20118;-79
2024/01/15 03:53:47;;;;;;;32.47;14.93;;;;;;;-144.05;79.35;57050.63;5098345;28;20055;-81
2024/01/15 03:56:13;;;;;;;34.45;14.73;;;;;;;-144.05;80.42;57063.34;5094715;28;20121;-80
2024/01/15 03:58:40;;;;;;;35.67;14.25;;;;;;;-144.05;79.65;57065.47;5091992;28;20034;-79
2024/01/15 04:01:12;;;;;;;28.33;14.00;;;;;;;-144.05;79.41;57040.00;5092231;28;20054;-81
2024/01/15 04:03:38;;;;;;;26.20;14.00;;;;;;;-144.05;79.71;57063.34;5091965;28;20023;-80
2024/01/15 04:06:05;;;;;;;36.47;15.88;;;;;;;-144.05;79.57;57080.34;5093697;28;20060;-79
2024/01/15 04:08:31;;;;;;;30.00;15.40;;;;;;;-144.05;78.95;57063.34;5093523;28;20101;-81
2024/01/15 04:10:58;;;;;;;35.42;16.40;;;;;;;-144.05;78.34;57056.97;5093592;28;20058;-81
2024/01/15 04:13:24;;;;;;;31.02;16.05;;;;;;;-144.05;79.96;57050.63;5091866;28;20477;-80
2024/01/15 04:15:50;;;;;;;38.88;17.85;;;;;;;-144.05;79.31;57059.09;5093454;28;20027;-80
2024/01/15 04:18:19;;;;;;;35.92;17.63;;;;;;;-144.05;79.32;57040.00;5111951;28;20062;-81
2024/01/15 04:20:46;;;;;;;34.20;15.27;;;;;;;-144.05;80.01;57067.59;5094720;28;20093;-82
2024/01/15 04:23:12;;;;;;;31.30;14.65;;;;;;;-144.05;80.02;57073.97;5092979;28;20542;-80
2024/01/15 04:25:42;;;;;;;31.58;16.00;;;;;;;-144.05;80.49;57086.72;5091572;28;20031;-82
2024/01/15 04:28:09;;;;;;;32.42;15.65;;;;;;;-144.05;79.87;57042.13;5097164;28;20024;-80
2024/01/15 04:30:35;;;;;;;34.22;15.35;;;;;;;-144.05;79.21;57088.84;5099482;28;20024;-84
2024/01/15 04:33:01;;;;;;;31.63;14.18;;;;;;;-144.05;80.25;57035.75;5092754;28;20028;-77
2024/01/15 04:35:28;;;;;;;33.17;16.17;;;;;;;-144.05;79.45;57067.59;5093753;28;20055;-80
2024/01/15 04:37:54;;;;;;;29.15;15.43;;;;;;;-144.05;79.80;57046.38;5096870;28;20024;-79
2024/01/15 04:40:20;;;;;;;29.25;15.60;;;;;;;-144.05;79.71;57078.22;5112528;28;20019;-81
2024/01/15 04:42:46;;;;;;;35.13;15.70;;;;;;;-144.05;79.72;57069.72;5093870;28;20067;-81
2024/01/15 04:45:13;;;;;;;32.22;15.55;;;;;;;-144.05;79.36;57050.63;5095626;28;20024;-80
2024/01/15 04:47:39;;;;;;;27.90;14.93;;;;;;;-144.05;79.32;57080.34;5093534;28;20036;-80
2024/01/15 04:50:06;;;;;;;27.98;14.63;;;;;;;-144.05;79.35;57054.88;5098286;28;20515;-79
2024/01/15 04:52:32;;;;;;;31.67;15.52;;;;;;;-144.05;79.17;57044.25;5097202;28;20110;-78
2024/01/15 04:54:58;;;;;;;31.20;15.32;;;;;;;-144.05;79.83;57054.88;5093289;28;20034;-76
2024/01/15 04:57:25;;;;;;;28.95;14.77;;;;;;;-144.05;79.17;57095.22;5095953;28;20031;-79
2024/01/15 04:59:51;;;;;;;34.53;14.48;;;;;;;-144.05;78.90;57063.34;5095640;28;20405;-77
2024/01/15 05:02:17;;;;;;;35.67;15.50;;;;;;;-144.05;79.00;57059.09;5096558;28;20055;-79
2024/01/15 05:04:43;;;;;;;31.42;15.32;;;;;;;-144.05;79.28;57086.72;5099131;28;20063;-80
2024/01/15 05:07:09;;;;;;;40.30;17.70;;;;;;;-144.05;78.82;57040.00;5120072;28;20170;-78
2024/01/15 05:09:35;;;;;;;32.03;15.02;;;;;;;-144.05;79.30;57056.97;5107347;28;20024;-80
2024/01/15 05:12:02;;;;;;;27.40;14.68;;;;;;;-144.05;79.17;57012.38;5103063;28;20023;-81
2024/01/15 05:14:28;;;;;;;39.08;16.92;;;;;;;-144.05;79.34;57067.59;5093286;28;20485;-76
2024/01/15 05:16:54;;;;;;;37.55;17.00;;;;;;;-144.05;79.81;57056.97;5105495;28;20034;-81
2024/01/15 05:19:21;;;;;;;31.83;15.63;;;;;;;-144.05;79.37;57090.97;5108366;28;20032;-81
2024/01/15 05:21:47;;;;;;;32.85;15.48;;;;;;;-144.05;79.45;57071.84;5108869;28;20053;-79
2024/01/15 05:24:13;;;;;;;37.83;16.52;;;;;;;-144.05;79.05;57052.75;5102261;28;20028;-80
2024/01/15 05:26:39;;;;;;;32.33;16.42;;;;;;;-144.05;79.57;57071.84;5116756;28;20035;-80
2024/01/15 05:29:06;;;;;;;34.92;16.30;;;;;;;-144.05;79.35;57061.22;5101106;28;20136;-79
2024/01/15 05:31:32;;;;;;;32.80;17.85;;;;;;;-144.05;79.97;57071.84;5107493;28;20118;-78
2024/01/15 05:33:58;;;;;;;32.05;15.07;;;;;;;-144.05;80.07;57078.22;5105151;28;20024;-78
2024/01/15 05:36:24;;;;;;;36.95;19.30;;;;;;;-144.05;81.66;57073.97;5111451;28;20036;-79
2024/01/15 05:38:50;;;;;;;38.25;16.02;;;;;;;-144.05;81.39;57069.72;5108139;28;20030;-79
2024/01/15 05:41:17;;;;;;;35.03;17.65;;;;;;;-144.05;81.89;57101.59;5111971;28;20027;-77
2024/01/15 05:43:43;;;;;;;34.05;16.13;;;;;;;-144.05;81.71;57076.09;5109888;27;20024;-78
2024/01/15 05:46:09;;;;;;;35.55;16.58;;;;;;;-144.05;82.01;57078.22;5107267;28;20028;-79
2024/01/15 05:48:35;;;;;;;32.72;16.17;;;;;;;-144.05;82.04;57052.75;5098430;28;20032;-77
2024/01/15 05:51:02;;;;;;;34.17;16.23;;;;;;;-144.05;81.50;57076.09;5103955;28;20032;-79
2024/01/15 05:53:28;;;;;;;28.20;15.23;;;;;;;-144.05;81.71;57084.59;5099665;28;20425;-78
2024/01/15 05:55:55;;;;;;;30.60;16.10;;;;;;;-144.05;82.16;57040.00;5101285;28;20024;-78
2024/01/15 05:58:22;;;;;;;45.80;16.17;;;;;;;-144.05;81.67;57065.47;5117250;28;20031;-79
2024/01/15 06:00:49;;;;;;;30.63;16.30;;;;;;;-144.05;81.54;57059.09;5121304;28;20016;-76
2024/01/15 06:03:16;;;;;;;38.85;16.08;;;;;;;-144.05;81.40;57080.34;5105382;28;20027;-79
2024/01/15 06:05:42;;;;;;;29.23;15.68;;;;;;;-144.05;80.85;57063.34;5098169;28;20252;-80
2024/01/15 06:08:08;;;;;;;31.95;15.02;;;;;;;-144.05;81.25;57054.88;5096557;28;20035;-77
2024/01/15 06:10:34;;;;;;;30.33;15.65;;;;;;;-144.05;81.06;57063.34;5103943;28;20027;-78
2024/01/15 06:13:00;;;;;;;35.58;16.33;;;;;;;-144.05;81.80;57084.59;5098004;28;20030;-79
2024/01/15 06:15:27;;;;;;;34.42;14.50;;;;;;;-144.05;81.07;57078.22;5097991;28;20047;-77
2024/01/15 06:17:53;;;;;;;30.58;14.48;;;;;;;-144.05;80.38;57040.00;5097250;28;20078;-78
2024/01/15 06:20:19;;;;;;;29.67;13.60;;;;;;;-144.05;80.97;57073.97;5097719;28;20121;-78
2024/01/15 06:22:45;;;;;;;30.27;15.10;;;;;;;-144.05;81.37;57093.09;5098005;28;20047;-78
2024/01/15 06:25:12;;;;;;;29.65;14.57;;;;;;;-144.05;81.39;57086.72;5102232;28;20036;-80
2024/01/15 06:27:38;;;;;;;31.65;15.23;;;;;;;-144.05;81.46;57056.97;5097818;28;20031;-80
2024/01/15 06:30:05;;;;;;;22.75;13.77;;;;;;;-144.05;81.25;57071.84;5102062;28;20133;-80
2024/01/15 06:32:31;;;;;;;34.58;14.68;;;;;;;-144.05;81.41;57073.97;5099615;28;20040;-78
2024/01/15 06:34:57;;;;;;;30.70;15.82;;;;;;;-144.05;81.03;57067.59;5107691;28;20027;-81
2024/01/15 06:37:24;;;;;;;29.65;14.75;;;;;;;-144.05;81.74;57065.47;5102510;28;20073;-79
2024/01/15 06:39:50;;;;;;;36.40;15.75;;;;;;;-144.05;81.54;57073.97;5097044;28;20119;-79
2024/01/15 06:42:16;;;;;;;31.63;15.90;;;;;;;-144.05;81.56;57059.09;5098313;28;20107;-78
2024/01/15 06:44:42;;;;;;;30.40;16.42;;;;;;;-144.05;81.74;57052.75;5098103;28;20750;-79
2024/01/15 06:47:08;;;;;;;30.08;16.23;;;;;;;-144.05;80.72;57093.09;5115507;28;20032;-78
2024/01/15 06:49:35;;;;;;;32.85;15.48;;;;;;;-144.05;81.71;57086.72;5126531;28;20095;-81
2024/01/15 06:52:01;;;;;;;30.42;15.23;;;;;;;-144.05;81.39;57082.47;5118513;28;20051;-78
2024/01/15 06:54:27;;;;;;;32.40;14.52;;;;;;;-144.05;81.54;57073.97;5117576;28;20055;-77
2024/01/15 06:56:53;;;;;;;27.95;14.93;;;;;;;-144.05;82.04;57044.25;5112759;28;20059;-81
2024/01/15 06:59:19;;;;;;;31.60;14.95;;;;;;;-144.05;81.87;57065.47;5102730;28;20028;-77
2024/01/15 07:01:46;;;;;;;29.98;14.45;;;;;;;-144.05;81.14;57054.88;5101510;28;20032;-78
2024/01/15 07:04:13;;;;;;;30.75;15.57;;;;;;;-144.05;81.06;57069.72;5097131;28;20032;-76
2024/01/15 07:06:39;;;;;;;27.27;14.07;;;;;;;-144.05;81.17;57086.72;5097424;28;20096;-78
2024/01/15 07:09:06;;;;;;;29.65;14.32;;;;;;;-144.05;81.99;57078.22;5101340;28;20091;-77
2024/01/15 07:11:32;;;;;;;33.33;16.80;;;;;;;-144.05;81.88;57105.84;5097113;28;20457;-78
2024/01/15 07:13:58;;;;;;;27.13;15.15;;;;;;;-144.05;81.96;57076.09;5096132;28;20381;-79
2024/01/15 07:16:25;;;;;;;27.75;15.10;;;2.40;99.90;;;-144.05;81.85;57099.47;5096818;28;20077;-79
2024/01/15 07:18:51;;;;;;;31.15;17.10;;;;;;;-144.05;81.37;57056.97;5094816;28;20043;-77
2024/01/15 07:21:17;;;;;;;26.42;15.70;;;;;;;-144.05;81.74;57088.84;5096889;28;20032;-78
2024/01/15 07:23:44;;;;;;;24.80;14.38;;;;;;;-144.05;81.80;57065.47;5096024;28;20032;-77
2024/01/15 07:26:10;;;;;;;32.13;16.80;;;;;;;-144.05;81.79;57095.22;5103107;28;20032;-79
2024/01/15 07:28:36;;;;;;;29.15;15.13;;;;;;;-144.05;80.71;57073.97;5096295;28;20035;-79
2024/01/15 07:31:03;;;;;;;32.10;16.02;;;;;;;-144.05;80.46;57050.63;5106121;28;20485;-78
2024/01/15 07:33:30;;;;;;;24.35;14.32;;;;;;;-144.05;80.63;57103.72;5104433;28;20048;-76
2024/01/15 07:35:56;;;;;;;27.10;13.98;;;;;;;-144.05;81.29;57059.09;5108719;28;20107;-77
2024/01/15 07:38:22;;;;;;;23.90;13.43;;;;;;;-144.05;81.15;57073.97;5105598;28;20047;-77
2024/01/15 07:40:49;;;;;;;21.23;13.23;;;;;;;-144.05;81.42;57078.22;5113195;28;20047;-77
2024/01/15 07:43:16;;;;;;;26.02;12.55;;;;;;;-144.05;81.06;57046.38;5096940;28;20085;-78
2024/01/15 07:45:42;;;;;;;20.10;11.52;;;;;;;-144.05;81.28;57050.63;5112657;28;20504;-77
2024/01/15 07:48:09;;;;;;;22.08;12.00;;;;;;;-144.05;80.85;57042.13;5100577;28;20431;-80
2024/01/15 07:50:35;;;;;;;20.65;12.00;;;;;;;-144.05;80.93;57046.38;5112002;28;20389;-79
2024/01/15 07:53:01;;;;;;;21.42;11.73;;;;;;;-144.05;81.11;57080.34;5109034;28;20058;-79
2024/01/15 07:55:28;;;;;;;17.05;10.57;;;;;;;-144.05;80.54;57076.09;5103966;28;20023;-77
2024/01/15 07:57:58;;;;;;;18.45;10.88;;;;;;;-144.05;80.00;57076.09;5096036;28;20019;-80
2024/01/15 08:00:25;;;;;;;20.70;10.52;;;;;;;-144.05;80.30;57073.97;5094928;28;20473;-76
2024/01/15 08:02:52;;;;;;;22.63;10.48;;;;;;;-144.05;79.90;57088.84;5095696;28;20024;-79
2024/01/15 08:05:20;;;;;;;13.57;7.97;;;;;;;-144.05;80.30;57073.97;5100563;28;20032;-77
2024/01/15 08:07:47;;;;;;;15.60;9.45;;;;;;;-144.05;80.60;57095.22;5098266;28;20032;-79
2024/01/15 08:10:13;;;;;;;16.65;8.95;;;;;;;-144.05;80.33;57069.72;5098325;28;20039;-78
2024/01/15 08:12:40;;;;;;;17.95;8.90;;;;;;;-144.05;80.72;57061.22;5097871;28;20036;-76
2024/01/15 08:15:06;;;;;;;16.95;8.82;;;;;;;-144.05;80.58;57101.59;5097554;28;20173;-79
2024/01/15 08:17:32;;;;;;;12.55;8.35;;;;;;;-144.05;81.04;57073.97;5099886;28;20024;-78
2024/01/15 08:20:00;;;;;;;13.73;8.13;;;;;;;-144.05;81.25;57082.47;5096088;28;20580;-78
2024/01/15 08:22:26;;;;;;;16.42;8.57;;;;;;;-144.05;81.92;57082.47;5102859;28;20023;-80
2024/01/15 08:24:53;;;;;;;17.00;8.20;;;;;;;-144.05;82.31;57095.22;5099303;28;20071;-80
2024/01/15 08:27:19;;;;;;;16.02;8.13;;;;;;;-144.05;82.66;57099.47;5096663;28;20054;-76
2024/01/15 08:29:46;;;;;;;17.45;7.20;;;;;;;-144.05;82.69;57095.22;5096912;28;20020;-79
2024/01/15 08:32:15;;;;;;;12.55;6.85;;;;;;;-144.05;83.23;57099.47;5096540;28;20459;-79
2024/01/15 08:34:42;;;;;;;13.18;6.93;;;;;;;-144.05;82.68;57093.09;5098701;28;20027;-79
2024/01/15 08:37:08;;;;;;;10.15;6.13;;;;;;;-144.05;83.29;57065.47;5100514;28;20020;-80
2024/01/15 08:39:38;;;;;;;12.68;5.80;;;;;;;-144.05;82.98;57061.22;5100955;28;20115;-78
2024/01/15 08:42:05;;;;;;;9.77;5.97;;;;;;;-144.05;82.76;57090.97;5103154;28;20028;-81
2024/01/15 08:44:31;;;;;;;11.63;6.47;;;;;;;-144.05;83.50;57076.09;5097210;28;20051;-80
2024/01/15 08:46:58;;;;;;;11.48;6.85;;;;;;;-144.05;83.48;57090.97;5115386;28;20081;-78
2024/01/15 08:49:24;;;;;;;13.52;7.85;;;;;;;-144.05;83.51;57082.47;5112602;28;20067;-79
2024/01/15 08:51:50;;;;;;;16.05;8.43;;;;;;;-144.05;83.33;57078.22;5095281;28;20052;-79
2024/01/15 08:54:18;;;;;;;18.63;9.43;;;;;;;-144.05;84.15;57099.47;5108588;28;20032;-81
2024/01/15 08:56:44;;;;;;;21.63;10.15;;;;;;;-144.05;84.11;57129.22;5111708;28;20038;-81
2024/01/15 08:59:11;;;;;;;17.35;10.23;;;1.90;99.90;;;-144.05;84.36;57095.22;5094933;28;20510;-80
2024/01/15 09:01:39;;;;;;;23.77;10.63;;;;;;;-144.05;84.03;57101.59;5110782;28;20028;-81
2024/01/15 09:04:05;;;;;;;19.75;10.73;;;;;;;-144.05;84.15;57048.50;5093084;28;20050;-79
2024/01/15 09:06:33;;;;;;;20.65;11.68;;;;;;;-144.05;83.39;57042.13;5094872;28;20400;-79
2024/01/15 09:09:00;;;;;;;22.17;12.55;;;;;;;-144.05;84.06;57054.88;5102094;28;20093;-79
2024/01/15 09:11:26;;;;;;;21.83;11.95;;;;;;;-144.05;84.08;57097.34;5095534;28;20225;-83
2024/01/15 09:13:52;;;;;;;22.08;13.05;;;;;;;-144.05;85.06;57065.47;5106834;28;20066;-78
2024/01/15 09:16:18;;;;;;;21.27;12.68;;;;;;;-144.05;84.78;57093.09;5100246;28;20107;-79
2024/01/15 09:18:46;;;;;;;21.67;13.25;;;;;;;-144.05;85.26;57042.13;5096531;28;20027;-81
2024/01/15 09:21:13;;;;;;;23.73;13.38;;;;;;;-144.05;85.25;57107.97;5096283;28;20091;-80
2024/01/15 09:23:39;;;;;;;23.67;13.95;;;;;;;-144.05;84.85;57086.72;5094891;28;20350;-81
2024/01/15 09:26:08;;;;;;;25.70;14.63;;;;;;;-144.05;84.43;57095.22;5095638;28;20085;-80
2024/01/15 09:28:34;;;;;;;27.67;14.45;;;;;;;-144.05;83.59;57033.63;5096249;28;20078;-79
2024/01/15 09:31:00;;;;;;;24.45;14.68;;;;;;;-144.05;84.83;57073.97;5094431;28;20464;-79
2024/01/15 09:33:26;;;;;;;26.02;13.98;;;;;;;-144.05;83.97;57099.47;5095527;28;20028;-77
2024/01/15 09:35:52;;;;;;;22.27;14.27;;;;;;;-144.05;83.78;57063.34;5095802;28;20020;-80
2024/01/15 09:38:20;;;;;;;24.42;14.15;;;;;;;-144.05;85.33;57097.34;5094622;28;20462;-80
2024/01/15 09:40:47;;;;;;;24.02;13.98;;;;;;;-144.05;85.42;57069.72;5095565;28;20124;-81
2024/01/15 09:43:15;;;;;;;27.13;15.73;;;;;;;-144.05;85.21;57093.09;5093991;28;20036;-79
2024/01/15 09:45:43;;;;;;;22.83;14.32;;;;;;;-144.05;85.01;57061.22;5094518;28;20032;-80
2024/01/15 09:48:09;;;;;;;22.70;14.73;;;;;;;-144.05;85.01;57069.72;5094958;28;20028;-78
2024/01/15 09:50:36;;;;;;;23.17;13.88;;;;;;;-144.05;84.32;57071.84;5101138;28;20028;-79
2024/01/15 09:53:05;;;;;;;22.90;13.88;;;;;;;-144.05;84.66;57076.09;5107026;28;20050;-82
2024/01/15 09:55:32;;;;;;;27.33;14.20;;;;;;;-144.05;84.07;57056.97;5096333;28;20032;-79
2024/01/15 09:58:01;;;;;;;25.63;13.07;;;;;;;-144.05;83.97;57067.59;5096782;28;20050;-80
2024/01/15 10:00:29;;;;;;;23.73;13.45;;;;;;;-144.05;84.81;57052.75;5097194;28;20031;-80
2024/01/15 10:02:56;;;;;;;22.23;12.52;;;2.30;99.90;;;-144.05;84.90;57110.09;5107426;28;20039;-79
2024/01/15 10:05:22;;;;;;;24.13;11.90;;;;;;;-144.05;84.74;57078.22;5107697;28;20059;-84
2024/01/15 10:07:53;;;;;;;17.98;10.13;;;;;;;-144.05;84.92;57078.22;5096189;28;20052;-83
2024/01/15 10:10:19;;;;;;;20.25;10.27;;;;;;;-144.05;85.29;57069.72;5110414;28;20425;-78
2024/01/15 10:12:45;;;;;;;17.08;9.80;;;;;;;-144.05;83.98;57056.97;5118475;27;20415;-80
2024/01/15 10:15:12;;;;;;;14.75;9.27;;;;;;;-144.05;83.78;57063.34;5108341;28;20422;-80
2024/01/15 10:17:39;;;;;;;20.40;9.40;;;1.90;99.90;;;-144.05;83.69;57073.97;5095724;28;20052;-79
2024/01/15 10:20:11;;;;;;;15.43;8.60;;;-1.40;99.90;;;-144.05;84.19;57114.34;5094878;28;20028;-80
2024/01/15 10:22:43;;;;;;;15.77;8.65;;;;;;;-144.05;84.41;57105.84;5104180;28;20127;-79
2024/01/15 10:25:15;;;;;;;16.40;8.75;;;-0.90;99.90;;;-144.05;83.21;57097.34;5104166;28;20032;-79
2024/01/15 10:27:42;;;;;;;16.35;8.65;;;;;;;-144.05;83.20;57065.47;5095046;28;20024;-79
2024/01/15 10:30:10;;;;;;;17.48;9.32;;;1.80;99.90;;;-144.05;83.65;57103.72;5095271;28;20043;-77
2024/01/15 10:32:36;;;;;;;17.75;10.20;;;;;;;-144.05;83.34;57086.72;5094844;28;20045;-77
2024/01/15 10:35:04;;;;;;;20.10;10.95;;;;;;;-144.05;83.39;57059.09;5095603;28;20039;-79
2024/01/15 10:37:33;;;;;;;15.77;9.60;;;2.30;99.90;;;-144.05;83.96;57082.47;5093374;28;20063;-78
2024/01/15 10:40:05;;;;;;;18.63;10.75;;;;;;;-144.05;83.29;57071.84;5102229;28;20508;-79
2024/01/15 10:42:31;;;;;;;17.10;10.90;;;;;;;-144.05;82.26;57103.72;5103778;28;20034;-80
2024/01/15 10:44:58;;;;;;;17.90;10.93;;;;;;;-144.05;82.57;57044.25;5094295;28;20386;-79
2024/01/15 10:47:24;;;;;;;19.60;10.73;;;;;;;-144.05;81.81;57023.00;5094095;28;20028;-80
2024/01/15 10:49:51;;;;;;;19.80;10.32;;;;;;;-144.05;82.10;57067.59;5097154;28;20028;-79
2024/01/15 10:52:18;;;;;;;18.90;11.15;;;;;;;-144.05;81.67;57093.09;5092504;28;20093;-79
2024/01/15 10:54:45;;;;;;;19.20;11.93;;;;;;;-144.05;81.95;57067.59;5093739;28;20055;-79
2024/01/15 10:57:15;;;;;;;18.42;11.93;;;;;;;-144.05;82.16;57090.97;5094512;28;20028;-79